Time;durP1;ratioP1;P1;durP2;ratioP2;P2;SDS_P1;SDS_P2;PMS_P1;PMS_P2;Temp;Humidity;BMP_temperature;BMP_pressure;BME280_temperature;BME280_humidity;BME280_pressure;Samples;Min_cycle;Max_cycle;Signal;HPM_P1;HPM_P2
2022/04/25 00:00:52;;;;;;;2.05;1.95;;;19.00;51.00;;;;;;5134108;27;20177;-65
2022/04/25 00:03:18;;;;;;;2.45;2.10;;;19.10;51.10;;;;;;5134276;27;20204;-65
2022/04/25 00:05:43;;;;;;;1.70;1.52;;;19.10;51.10;;;;;;5133011;27;20621;-64
2022/04/25 00:08:09;;;;;;;1.85;1.60;;;19.10;51.10;;;;;;5134159;27;20173;-64
2022/04/25 00:10:34;;;;;;;2.80;1.90;;;19.10;51.20;;;;;;5133683;27;20173;-64
2022/04/25 00:13:00;;;;;;;2.65;2.00;;;19.00;51.10;;;;;;5132785;27;20180;-65
2022/04/25 00:15:27;;;;;;;1.92;1.83;;;19.00;51.10;;;;;;5133900;27;20172;-65
2022/04/25 00:17:52;;;;;;;2.50;2.30;;;19.00;51.10;;;;;;5133581;27;20661;-66
2022/04/25 00:20:18;;;;;;;2.15;1.95;;;19.00;51.10;;;;;;5133252;27;20196;-66
2022/04/25 00:22:45;;;;;;;2.15;1.98;;;19.00;51.10;;;;;;5133689;27;20677;-65
2022/04/25 00:25:11;;;;;;;1.92;1.67;;;19.00;51.10;;;;;;5134015;27;20184;-66
2022/04/25 00:27:36;;;;;;;2.15;2.05;;;19.00;51.10;;;;;;5132916;27;20192;-66
2022/04/25 00:30:02;;;;;;;2.38;2.03;;;19.00;51.20;;;;;;5133869;27;20229;-68
2022/04/25 00:32:28;;;;;;;2.30;2.10;;;19.00;51.10;;;;;;5133765;27;20638;-66
2022/04/25 00:34:53;;;;;;;2.22;2.00;;;19.00;51.20;;;;;;5132743;27;20180;-64
2022/04/25 00:37:19;;;;;;;2.28;2.08;;;18.90;51.10;;;;;;5133689;27;20164;-65
2022/04/25 00:39:44;;;;;;;2.25;2.05;;;19.00;51.20;;;;;;5132847;27;20636;-65
2022/04/25 00:42:10;;;;;;;2.47;2.28;;;18.90;51.10;;;;;;5132838;27;20565;-66
2022/04/25 00:44:36;;;;;;;2.70;2.10;;;19.00;51.20;;;;;;5133473;27;20196;-65
2022/04/25 00:47:02;;;;;;;2.10;2.00;;;18.90;51.20;;;;;;5134021;27;20656;-64
2022/04/25 00:49:27;;;;;;;2.60;2.40;;;18.90;51.20;;;;;;5132836;28;20172;-64
2022/04/25 00:51:53;;;;;;;2.83;2.05;;;18.90;51.20;;;;;;5133229;28;20669;-64
2022/04/25 00:54:22;;;;;;;2.38;2.17;;;18.90;51.10;;;;;;5132702;28;20735;-65
2022/04/25 00:56:48;;;;;;;2.08;1.98;;;18.90;51.20;;;;;;5133025;28;20657;-65
2022/04/25 00:59:30;;;;;;;3.13;2.83;;;18.90;51.20;;;;;;5133368;28;20594;-66
2022/04/25 01:01:55;;;;;;;2.55;2.35;;;18.90;51.20;;;;;;5132448;28;20200;-65
2022/04/25 01:04:21;;;;;;;2.00;1.90;;;18.90;51.20;;;;;;5133266;28;20220;-65
2022/04/25 01:06:48;;;;;;;2.85;2.05;;;18.90;51.20;;;;;;5133024;28;20183;-65
2022/04/25 01:09:13;;;;;;;2.35;2.15;;;18.90;51.30;;;;;;5132808;28;20176;-65
2022/04/25 01:11:39;;;;;;;3.00;2.10;;;18.90;51.30;;;;;;5133269;28;20171;-65
2022/04/25 01:14:15;;;;;;;2.20;2.00;;;18.80;51.20;;;;;;5133208;28;20176;-65
2022/04/25 01:16:41;;;;;;;2.30;2.10;;;18.90;51.20;;;;;;5132307;28;20210;-65
2022/04/25 01:19:06;;;;;;;2.35;2.15;;;18.80;51.20;;;;;;5133216;28;20192;-66
2022/04/25 01:21:59;;;;;;;2.25;2.10;;;18.80;51.20;;;;;;5133403;28;20615;-66
2022/04/25 01:27:16;;;;;;;2.25;2.05;;;18.80;51.20;;;;;;5117959;28;20172;-66
2022/04/25 01:29:42;;;;;;;2.30;2.10;;;18.80;51.20;;;;;;5132070;28;20260;-65
2022/04/25 01:32:07;;;;;;;2.08;1.88;;;18.80;51.20;;;;;;5133336;28;20179;-65
2022/04/25 01:34:36;;;;;;;2.40;2.20;;;18.80;51.20;;;;;;5133382;28;20173;-65
2022/04/25 01:37:11;;;;;;;2.55;2.35;;;18.80;51.20;;;;;;5132537;28;20314;-65
2022/04/25 01:39:41;;;;;;;2.42;2.00;;;18.80;51.20;;;;;;5133021;28;20292;-64
2022/04/25 01:42:07;;;;;;;2.13;2.00;;;18.80;51.20;;;;;;5132967;28;20201;-65
2022/04/25 01:44:36;;;;;;;2.42;2.20;;;18.80;51.30;;;;;;5134516;27;20188;-65
2022/04/25 01:47:02;;;;;;;2.30;2.10;;;18.70;51.20;;;;;;5136973;27;20173;-65
2022/04/25 01:49:28;;;;;;;2.55;2.20;;;18.70;51.20;;;;;;5137156;27;20176;-65
2022/04/25 01:51:54;;;;;;;1.85;1.75;;;18.70;51.20;;;;;;5135913;27;20190;-64
2022/04/25 01:54:28;;;;;;;2.10;1.90;;;18.70;51.20;;;;;;5118502;27;20184;-65
2022/04/25 01:56:54;;;;;;;2.97;2.60;;;18.70;51.20;;;;;;5136635;27;20175;-66
2022/04/25 01:59:20;;;;;;;2.50;2.30;;;18.70;51.20;;;;;;5136073;27;20225;-66
2022/04/25 02:01:45;;;;;;;2.70;2.35;;;18.70;51.20;;;;;;5136459;27;20630;-65
2022/04/25 02:04:11;;;;;;;2.45;2.30;;;18.70;51.20;;;;;;5136347;27;20629;-65
2022/04/25 02:06:36;;;;;;;2.60;2.40;;;18.70;51.20;;;;;;5135549;27;20171;-64
2022/04/25 02:09:02;;;;;;;2.30;2.10;;;18.70;51.30;;;;;;5136376;27;20198;-65
2022/04/25 02:11:27;;;;;;;2.35;2.15;;;18.70;51.20;;;;;;5136397;27;20172;-65
2022/04/25 02:13:53;;;;;;;2.60;2.40;;;18.70;51.30;;;;;;5135527;27;20177;-67
2022/04/25 02:16:19;;;;;;;2.60;2.40;;;18.70;51.30;;;;;;5136400;27;20168;-66
2022/04/25 02:18:45;;;;;;;2.40;2.20;;;18.70;51.20;;;;;;5135274;27;20217;-66
2022/04/25 02:21:10;;;;;;;2.30;2.10;;;18.70;51.30;;;;;;5136224;27;20203;-66
2022/04/25 02:23:36;;;;;;;2.50;2.30;;;18.70;51.40;;;;;;5134567;27;20264;-66
2022/04/25 02:26:02;;;;;;;2.58;2.38;;;18.60;51.30;;;;;;5134229;27;20172;-66
2022/04/25 02:28:28;;;;;;;2.70;2.50;;;18.60;51.30;;;;;;5135179;27;20169;-65
2022/04/25 02:30:53;;;;;;;2.15;2.00;;;18.60;51.30;;;;;;5134841;27;20699;-65
2022/04/25 02:33:19;;;;;;;2.63;2.00;;;18.60;51.30;;;;;;5134163;27;20547;-65
2022/04/25 02:35:44;;;;;;;2.53;2.33;;;18.60;51.30;;;;;;5134600;27;20255;-64
2022/04/25 02:38:10;;;;;;;2.70;2.35;;;18.60;51.30;;;;;;5134826;27;20265;-65
2022/04/25 02:40:36;;;;;;;2.40;2.20;;;18.60;51.30;;;;;;5133534;27;20173;-65
2022/04/25 02:43:01;;;;;;;2.70;2.40;;;18.60;51.30;;;;;;5134726;27;20591;-66
2022/04/25 02:45:27;;;;;;;2.10;1.98;;;18.60;51.30;;;;;;5134797;27;20183;-65
2022/04/25 02:47:53;;;;;;;2.28;2.08;;;18.60;51.30;;;;;;5133846;27;20168;-65
2022/04/25 02:50:19;;;;;;;2.30;2.10;;;18.60;51.30;;;;;;5134857;27;20268;-65
2022/04/25 02:52:44;;;;;;;2.30;2.20;;;18.60;51.30;;;;;;5134208;27;20180;-68
2022/04/25 02:55:10;;;;;;;2.30;2.10;;;18.60;51.30;;;;;;5133805;27;20217;-67
2022/04/25 02:57:35;;;;;;;2.30;2.10;;;18.60;51.30;;;;;;5134276;27;20172;-66
2022/04/25 03:00:01;;;;;;;2.30;2.10;;;18.60;51.30;;;;;;5134192;27;20169;-65
2022/04/25 03:02:27;;;;;;;2.42;2.22;;;18.60;51.30;;;;;;5133531;27;20272;-66
2022/04/25 03:04:52;;;;;;;3.00;2.53;;;18.50;51.30;;;;;;5133691;27;20224;-65
2022/04/25 03:07:18;;;;;;;2.63;2.42;;;18.50;51.30;;;;;;5133990;27;20631;-66
2022/04/25 03:09:43;;;;;;;2.30;2.10;;;18.50;51.40;;;;;;5133334;27;20173;-65
2022/04/25 03:12:09;;;;;;;2.60;2.40;;;18.50;51.40;;;;;;5133996;27;20177;-65
2022/04/25 03:14:35;;;;;;;2.53;2.33;;;18.50;51.30;;;;;;5133765;27;20281;-66
2022/04/25 03:17:01;;;;;;;2.65;2.45;;;18.50;51.30;;;;;;5133559;27;20180;-65
2022/04/25 03:19:27;;;;;;;2.60;2.40;;;18.50;51.30;;;;;;5133977;27;20211;-66
2022/04/25 03:21:52;;;;;;;2.38;2.20;;;18.50;51.40;;;;;;5132815;27;20172;-66
2022/04/25 03:24:21;;;;;;;2.25;2.05;;;18.50;51.40;;;;;;5133925;27;20293;-66
2022/04/25 03:26:47;;;;;;;3.05;2.63;;;18.50;51.50;;;;;;5133604;27;20251;-66
2022/04/25 03:29:13;;;;;;;2.42;2.25;;;18.50;51.40;;;;;;5133125;27;20251;-66
2022/04/25 03:31:39;;;;;;;2.72;2.53;;;18.50;51.40;;;;;;5133426;27;20168;-65
2022/04/25 03:34:04;;;;;;;2.72;2.50;;;18.50;51.40;;;;;;5133687;27;20183;-65
2022/04/25 03:36:31;;;;;;;3.08;2.45;;;18.50;51.40;;;;;;5132888;27;20169;-65
2022/04/25 03:38:57;;;;;;;2.70;2.50;;;18.50;51.40;;;;;;5133094;27;20651;-65
2022/04/25 03:41:22;;;;;;;2.97;2.65;;;18.50;51.40;;;;;;5133455;27;20184;-66
2022/04/25 03:43:48;;;;;;;2.42;2.22;;;18.50;51.40;;;;;;5132419;27;20307;-65
2022/04/25 03:46:13;;;;;;;3.10;2.78;;;18.50;51.50;;;;;;5133451;27;20709;-65
2022/04/25 03:48:43;;;;;;;2.78;2.58;;;18.40;51.40;;;;;;5133132;27;20204;-64
2022/04/25 03:51:09;;;;;;;2.70;2.35;;;18.40;51.40;;;;;;5132738;27;20221;-64
2022/04/25 03:53:34;;;;;;;2.08;1.98;;;18.40;51.40;;;;;;5132832;27;20176;-64
2022/04/25 03:58:44;;;;;;;3.47;2.60;;;18.40;51.40;;;;;;5132299;27;20236;-65
2022/04/25 04:01:10;;;;;;;2.40;2.20;;;18.40;51.40;;;;;;5133124;27;20631;-65
2022/04/25 04:03:35;;;;;;;2.65;2.45;;;18.40;52.00;;;;;;5132440;27;20215;-65
2022/04/25 04:06:01;;;;;;;2.63;2.42;;;18.40;51.40;;;;;;5132313;27;20165;-65
2022/04/25 04:08:26;;;;;;;2.90;2.70;;;18.40;51.40;;;;;;5133040;27;20193;-65
2022/04/25 04:10:52;;;;;;;2.50;2.30;;;18.40;51.50;;;;;;5132923;27;20221;-65
2022/04/25 04:13:18;;;;;;;3.15;2.30;;;18.40;51.40;;;;;;5132237;27;20172;-65
2022/04/25 04:15:43;;;;;;;3.05;2.50;;;18.40;51.40;;;;;;5132832;27;20188;-65
2022/04/25 04:18:09;;;;;;;2.55;2.10;;;18.40;51.50;;;;;;5132066;27;20172;-66
2022/04/25 04:20:34;;;;;;;2.55;2.35;;;18.40;51.50;;;;;;5132774;27;20175;-65
2022/04/25 04:23:00;;;;;;;2.33;2.22;;;18.40;51.50;;;;;;5132778;27;20208;-66
2022/04/25 04:25:26;;;;;;;2.50;2.30;;;18.30;51.50;;;;;;5132307;27;20183;-66
2022/04/25 04:27:51;;;;;;;2.42;2.22;;;18.40;51.50;;;;;;5132493;27;20176;-66
2022/04/25 04:30:18;;;;;;;3.70;2.63;;;18.40;51.50;;;;;;5132578;27;20164;-65
2022/04/25 04:32:44;;;;;;;2.90;2.70;;;18.40;51.50;;;;;;5131630;27;20508;-65
2022/04/25 04:35:15;;;;;;;2.72;2.50;;;18.40;51.50;;;;;;5132626;27;20184;-65
2022/04/25 04:37:43;;;;;;;2.65;2.45;;;18.40;51.50;;;;;;5132385;27;20233;-64
2022/04/25 04:42:54;;;;;;;2.80;2.60;;;18.40;52.20;;;;;;5132301;27;20222;-65
2022/04/25 04:45:19;;;;;;;2.50;2.30;;;18.40;51.50;;;;;;5132552;27;20845;-65
2022/04/25 04:47:45;;;;;;;2.90;2.60;;;18.30;51.50;;;;;;5131362;27;20188;-65
2022/04/25 04:50:14;;;;;;;2.63;2.42;;;18.30;51.50;;;;;;5132642;28;20243;-65
2022/04/25 04:52:41;;;;;;;2.80;2.70;;;18.40;51.60;;;;;;5132220;28;20176;-65
2022/04/25 04:55:07;;;;;;;3.08;2.60;;;18.30;51.50;;;;;;5131798;28;20203;-67
2022/04/25 04:57:33;;;;;;;2.92;2.60;;;18.30;51.60;;;;;;5132633;28;20172;-67
2022/04/25 04:59:58;;;;;;;2.92;2.63;;;18.30;51.50;;;;;;5131971;28;20222;-67
2022/04/25 05:02:24;;;;;;;2.95;2.75;;;18.30;51.50;;;;;;5131721;28;20548;-68
2022/04/25 05:04:50;;;;;;;2.80;2.60;;;18.30;51.60;;;;;;5132102;28;20216;-66
2022/04/25 05:07:16;;;;;;;2.92;2.70;;;18.30;51.60;;;;;;5132315;28;20220;-66
2022/04/25 05:09:41;;;;;;;2.70;2.50;;;18.30;51.60;;;;;;5131406;28;20645;-65
2022/04/25 05:12:08;;;;;;;2.50;2.30;;;18.50;51.70;;;;;;5132374;28;20240;-65
2022/04/25 05:14:36;;;;;;;3.40;3.10;;;18.30;51.60;;;;;;5131261;28;20674;-65
2022/04/25 05:17:01;;;;;;;2.97;2.78;;;18.30;51.60;;;;;;5132397;28;20180;-66
2022/04/25 05:19:27;;;;;;;2.97;2.78;;;18.30;51.60;;;;;;5134380;27;20175;-66
2022/04/25 05:21:52;;;;;;;3.10;2.80;;;18.30;51.60;;;;;;5135215;27;20658;-66
2022/04/25 05:24:18;;;;;;;3.10;2.80;;;18.30;51.70;;;;;;5136305;27;20180;-66
2022/04/25 05:26:44;;;;;;;3.20;2.90;;;18.20;51.60;;;;;;5136013;27;20165;-66
2022/04/25 05:29:09;;;;;;;2.85;2.65;;;18.30;51.70;;;;;;5135370;27;20180;-65
2022/04/25 05:31:35;;;;;;;3.15;2.85;;;18.20;51.70;;;;;;5136055;27;20180;-65
2022/04/25 05:34:01;;;;;;;3.33;2.80;;;18.30;51.70;;;;;;5136210;27;20173;-65
2022/04/25 05:36:27;;;;;;;2.90;2.70;;;18.30;51.70;;;;;;5135163;27;20579;-65
2022/04/25 05:38:52;;;;;;;3.03;2.75;;;18.20;51.70;;;;;;5135787;27;20176;-66
2022/04/25 05:41:18;;;;;;;2.75;2.55;;;18.20;51.70;;;;;;5136026;27;20272;-65
2022/04/25 05:43:44;;;;;;;3.17;2.95;;;18.20;51.70;;;;;;5116476;27;20205;-65
2022/04/25 05:46:09;;;;;;;2.45;2.35;;;18.30;51.80;;;;;;5117584;27;20583;-66
2022/04/25 05:54:03;;;;;;;3.00;2.80;;;18.20;51.70;;;;;;5135720;27;20634;-66
2022/04/25 05:56:28;;;;;;;2.85;2.65;;;18.20;51.70;;;;;;5135925;27;20164;-66
2022/04/25 05:58:54;;;;;;;2.70;2.50;;;18.20;51.70;;;;;;5134808;27;20649;-67
2022/04/25 06:01:19;;;;;;;3.10;2.90;;;18.20;51.70;;;;;;5135719;27;20164;-67
2022/04/25 06:03:45;;;;;;;3.00;2.70;;;18.20;51.80;;;;;;5134455;27;20212;-67
2022/04/25 06:06:10;;;;;;;3.20;2.90;;;18.20;51.70;;;;;;5135879;27;20172;-66
2022/04/25 06:08:39;;;;;;;3.10;2.90;;;18.20;51.70;;;;;;5135425;27;20168;-67
2022/04/25 06:11:04;;;;;;;2.85;2.65;;;18.20;51.70;;;;;;5135048;27;20193;-67
2022/04/25 06:13:30;;;;;;;3.10;2.83;;;18.20;51.70;;;;;;5135900;27;20168;-67
2022/04/25 06:15:55;;;;;;;3.10;2.90;;;18.20;51.70;;;;;;5135245;27;20195;-66
2022/04/25 06:18:22;;;;;;;3.15;2.90;;;18.20;51.70;;;;;;5134506;27;20630;-67
2022/04/25 06:20:50;;;;;;;3.00;2.80;;;18.20;51.70;;;;;;5135114;27;20207;-67
2022/04/25 06:23:15;;;;;;;3.72;3.00;;;18.20;51.70;;;;;;5135074;27;20212;-67
2022/04/25 06:25:41;;;;;;;5.03;3.28;;;18.20;51.70;;;;;;5134700;27;20173;-68
2022/04/25 06:28:06;;;;;;;5.85;3.45;;;18.20;51.70;;;;;;5135483;27;20180;-68
2022/04/25 06:30:32;;;;;;;3.30;3.00;;;18.20;51.80;;;;;;5134248;27;20195;-65
2022/04/25 06:32:57;;;;;;;3.63;3.33;;;18.20;51.80;;;;;;5133771;27;20172;-65
2022/04/25 06:35:23;;;;;;;3.10;2.90;;;18.30;51.90;;;;;;5135056;27;20165;-66
2022/04/25 06:37:49;;;;;;;4.10;3.80;;;18.30;52.00;;;;;;5136550;27;20658;-64
2022/04/25 06:40:14;;;;;;;3.65;3.35;;;18.30;51.90;;;;;;5152585;27;20240;-65
2022/04/25 06:42:40;;;;;;;5.70;3.85;;;18.30;52.10;;;;;;5134766;27;20214;-65
2022/04/25 06:45:05;;;;;;;4.25;3.70;;;18.30;51.90;;;;;;5142103;27;20231;-65
2022/04/25 06:47:31;;;;;;;4.80;3.88;;;18.30;52.00;;;;;;5154789;27;20532;-65
2022/04/25 06:49:57;;;;;;;4.53;4.13;;;18.30;52.10;;;;;;5155201;27;20695;-63
2022/04/25 06:52:22;;;;;;;5.47;4.20;;;18.30;52.00;;;;;;5155408;27;20186;-66
2022/04/25 06:54:48;;;;;;;5.55;4.53;;;18.30;52.50;;;;;;5137467;27;20172;-66
2022/04/25 06:57:13;;;;;;;6.57;4.53;;;18.30;51.90;;;;;;5134412;27;20172;-68
2022/04/25 06:59:39;;;;;;;6.05;4.43;;;18.30;51.90;;;;;;5134427;27;20169;-65
2022/04/25 07:02:04;;;;;;;4.65;4.25;;;18.40;52.00;;;;;;5133924;27;20179;-71
2022/04/25 07:04:30;;;;;;;4.68;4.10;;;18.40;52.00;;;;;;5134497;27;20301;-65
2022/04/25 07:06:55;;;;;;;7.55;4.88;;;18.40;52.10;;;;;;5133646;27;20168;-65
2022/04/25 07:09:21;;;;;;;7.82;4.63;;;18.40;52.10;;;;;;5134374;27;20168;-66
2022/04/25 07:11:47;;;;;;;4.65;4.13;;;18.40;52.00;;;;;;5150967;27;20164;-65
2022/04/25 07:14:16;;;;;;;4.63;4.07;;;18.40;52.20;;;;;;5154560;27;20258;-66
2022/04/25 07:16:44;;;;;;;5.60;5.00;;;18.40;52.10;;;;;;5154768;27;20602;-66
2022/04/25 07:19:14;;;;;;;5.40;4.18;;;18.40;52.10;;;;;;5154708;27;20254;-67
2022/04/25 07:29:51;;;;;;;5.38;4.18;;;18.40;52.20;;;;;;5153530;27;20179;-63
2022/04/25 07:32:18;;;;;;;5.55;3.58;;;18.40;52.20;;;;;;5154576;27;20168;-64
2022/04/25 07:34:45;;;;;;;5.78;4.25;;;18.40;52.30;;;;;;5154602;27;20210;-66
2022/04/25 07:37:11;;;;;;;8.40;4.47;;;18.40;52.20;;;;;;5153641;27;20625;-67
2022/04/25 07:39:37;;;;;;;7.65;4.50;;;18.40;52.10;;;;;;5154432;27;20309;-67
2022/04/25 07:42:05;;;;;;;5.28;4.35;;;18.40;52.20;;;;;;5153410;27;20339;-65
2022/04/25 07:44:31;;;;;;;7.88;5.18;;;18.40;52.30;;;;;;5149915;27;20185;-64
2022/04/25 07:46:58;;;;;;;7.05;4.57;;;18.40;52.40;;;;;;5133625;27;20193;-63
2022/04/25 07:49:26;;;;;;;8.18;4.35;;;18.40;52.30;;;;;;5132919;27;20177;-64
2022/04/25 07:51:52;;;;;;;5.13;4.63;;;18.40;52.30;;;;;;5133182;27;20168;-63
2022/04/25 07:54:19;;;;;;;5.50;4.68;;;18.40;52.20;;;;;;5098273;27;20189;-64
2022/04/25 07:56:45;;;;;;;4.97;4.13;;;18.40;52.20;;;;;;5132207;27;20176;-64
2022/04/25 07:59:10;;;;;;;4.60;4.20;;;18.40;52.20;;;;;;5133357;27;20647;-64
2022/04/25 08:01:36;;;;;;;5.45;4.70;;;18.40;52.10;;;;;;5132871;27;20172;-64
2022/04/25 08:04:01;;;;;;;5.15;4.72;;;18.40;52.10;;;;;;5132318;27;20280;-63
2022/04/25 08:06:27;;;;;;;4.68;4.15;;;18.40;52.20;;;;;;5133254;27;20169;-64
2022/04/25 08:08:56;;;;;;;6.63;4.80;;;18.30;52.10;;;;;;5132893;27;20172;-63
2022/04/25 08:11:21;;;;;;;5.75;4.63;;;18.40;52.10;;;;;;5132302;27;20165;-64
2022/04/25 08:19:15;;;;;;;5.50;4.65;;;18.40;52.00;;;;;;5132183;27;20176;-65
2022/04/25 08:21:42;;;;;;;5.40;4.90;;;18.30;52.20;;;;;;5132625;27;20164;-65
2022/04/25 08:24:07;;;;;;;5.80;5.20;;;18.40;51.90;;;;;;5132714;27;20533;-65
2022/04/25 08:26:33;;;;;;;5.38;4.88;;;18.40;51.90;;;;;;5131948;27;20172;-65
2022/04/25 08:29:02;;;;;;;5.50;5.00;;;18.30;51.90;;;;;;5132354;27;20599;-64
2022/04/25 08:31:27;;;;;;;6.47;5.10;;;18.40;51.90;;;;;;5132088;27;20168;-64
2022/04/25 08:33:53;;;;;;;6.28;4.90;;;18.40;51.90;;;;;;5132241;27;20271;-63
2022/04/25 08:36:19;;;;;;;4.95;4.55;;;18.40;52.00;;;;;;5132707;27;20181;-63
2022/04/25 08:38:45;;;;;;;5.00;4.60;;;18.30;51.90;;;;;;5131536;27;20531;-63
2022/04/25 08:41:11;;;;;;;5.20;4.80;;;18.40;52.00;;;;;;5114617;27;20177;-65
2022/04/25 08:43:40;;;;;;;5.35;4.85;;;18.40;52.00;;;;;;5113987;28;20239;-64
2022/04/25 08:46:07;;;;;;;5.45;4.95;;;18.40;51.90;;;;;;5131227;27;20197;-64
2022/04/25 08:48:33;;;;;;;5.90;5.38;;;18.40;51.90;;;;;;5134942;27;20254;-63
2022/04/25 08:50:59;;;;;;;7.03;5.57;;;18.40;51.90;;;;;;5152926;27;20574;-63
2022/04/25 08:53:25;;;;;;;5.63;5.13;;;18.40;51.90;;;;;;5152236;27;20172;-64
2022/04/25 08:55:53;;;;;;;6.20;5.57;;;18.40;51.90;;;;;;5152958;27;20176;-64
2022/04/25 08:58:18;;;;;;;6.15;5.63;;;18.40;51.80;;;;;;5153049;27;20649;-65
2022/04/25 09:00:44;;;;;;;5.85;5.25;;;18.40;51.90;;;;;;5152023;27;20254;-64
2022/04/25 09:03:12;;;;;;;6.20;5.60;;;18.40;51.80;;;;;;5152915;27;20230;-65
2022/04/25 09:05:38;;;;;;;5.97;5.47;;;18.40;51.80;;;;;;5152630;27;20690;-64
2022/04/25 09:08:04;;;;;;;5.97;5.28;;;18.40;51.80;;;;;;5152460;27;20179;-63
2022/04/25 09:10:29;;;;;;;7.93;5.63;;;18.40;51.80;;;;;;5153242;27;20296;-64
2022/04/25 09:12:55;;;;;;;6.82;5.95;;;18.40;51.90;;;;;;5116995;27;20590;-64
2022/04/25 09:15:22;;;;;;;5.90;5.28;;;18.40;52.00;;;;;;5133973;27;20194;-67
2022/04/25 09:17:48;;;;;;;7.22;5.50;;;18.40;51.90;;;;;;5152606;27;20179;-65
2022/04/25 09:20:13;;;;;;;7.40;5.82;;;18.40;51.90;;;;;;5152881;27;20168;-65
2022/04/25 09:22:42;;;;;;;6.45;5.85;;;18.40;51.90;;;;;;5152179;27;20631;-65
2022/04/25 09:25:12;;;;;;;6.32;5.72;;;18.30;51.90;;;;;;5152941;27;20172;-65
2022/04/25 09:27:38;;;;;;;5.57;5.07;;;18.30;52.50;;;;;;5152165;27;20483;-65
2022/04/25 09:30:22;;;;;;;6.25;5.68;;;18.40;51.90;;;;;;5152976;27;20597;-64
2022/04/25 09:32:52;;;;;;;8.23;6.55;;;18.30;51.90;;;;;;5152512;27;20194;-64
2022/04/25 09:35:24;;;;;;;6.35;5.75;;;18.40;51.90;;;;;;5152370;27;20207;-65
2022/04/25 09:37:50;;;;;;;6.50;5.90;;;18.30;52.00;;;;;;5152522;27;20483;-64
2022/04/25 09:40:19;;;;;;;6.75;6.15;;;18.40;52.00;;;;;;5153002;27;20677;-65
2022/04/25 09:42:46;;;;;;;6.65;6.05;;;18.30;52.00;;;;;;5151796;27;20203;-65
2022/04/25 09:45:12;;;;;;;6.45;5.85;;;18.30;52.00;;;;;;5142781;27;20172;-65
2022/04/25 09:47:37;;;;;;;6.50;5.90;;;18.30;52.00;;;;;;5131525;28;20506;-64
2022/04/25 09:50:07;;;;;;;6.40;5.80;;;18.30;52.00;;;;;;5131356;28;20216;-64
2022/04/25 09:52:55;;;;;;;6.45;5.78;;;18.30;52.60;;;;;;5131797;28;20635;-65
2022/04/25 09:55:21;;;;;;;6.57;5.95;;;18.30;52.00;;;;;;5118910;28;20177;-65
2022/04/25 09:57:49;;;;;;;6.95;6.35;;;18.30;52.00;;;;;;5131087;28;20198;-65
2022/04/25 10:00:34;;;;;;;7.20;6.20;;;18.30;52.10;;;;;;5132033;28;20547;-65
2022/04/25 10:03:01;;;;;;;5.75;5.25;;;18.30;52.10;;;;;;5131226;28;20216;-63
2022/04/25 10:06:02;;;;;;;9.55;6.40;;;18.30;51.90;;;;;;5133493;27;20277;-66
2022/04/25 10:08:27;;;;;;;9.32;6.00;;;18.30;51.90;;;;;;5051780;28;20178;-68
2022/04/25 10:10:53;;;;;;;12.25;6.40;;;18.30;51.90;;;;;;5099014;27;20615;-68
2022/04/25 10:13:19;;;;;;;10.73;6.78;;;18.40;51.90;;;;;;5135146;27;20255;-70
2022/04/25 10:15:45;;;;;;;10.77;6.43;;;18.30;51.90;;;;;;5134407;27;20180;-69
2022/04/25 10:18:11;;;;;;;8.30;5.88;;;18.40;51.90;;;;;;5134227;27;20255;-69
2022/04/25 10:20:37;;;;;;;7.18;5.93;;;18.30;51.90;;;;;;5134551;27;20165;-70
2022/04/25 10:23:07;;;;;;;7.38;6.38;;;18.40;52.00;;;;;;5135010;27;20203;-69
2022/04/25 10:25:32;;;;;;;6.68;5.75;;;18.40;52.00;;;;;;5134326;27;20210;-69
2022/04/25 10:27:59;;;;;;;10.77;6.18;;;18.30;52.00;;;;;;5134510;27;20173;-69
2022/04/25 10:30:29;;;;;;;7.60;5.90;;;18.40;52.00;;;;;;5097281;27;20191;-68
2022/04/25 10:33:20;;;;;;;8.40;6.47;;;18.40;52.00;;;;;;5115813;27;20206;-69
2022/04/25 10:35:50;;;;;;;7.40;5.95;;;18.30;52.20;;;;;;5132255;27;20165;-69
2022/04/25 10:38:47;;;;;;;10.63;5.90;;;18.40;52.00;;;;;;5134009;27;20738;-69
2022/04/25 10:44:24;;;;;;;6.20;5.60;;;18.40;52.00;;;;;;5105603;27;20223;-69
2022/04/25 10:47:05;;;;;;;6.78;6.07;;;18.40;52.00;;;;;;5155013;27;20188;-69
2022/04/25 10:49:31;;;;;;;9.55;5.95;;;18.40;52.20;;;;;;5155783;27;20207;-68
2022/04/25 10:51:57;;;;;;;6.65;5.72;;;18.40;52.20;;;;;;5154872;27;20254;-68
2022/04/25 10:54:27;;;;;;;8.55;6.25;;;18.30;52.20;;;;;;5135263;27;20256;-69
2022/04/25 10:57:08;;;;;;;15.40;7.80;;;18.40;52.30;;;;;;5117014;27;20188;-70
2022/04/25 10:59:33;;;;;;;19.33;7.53;;;18.40;52.20;;;;;;5133821;27;20171;-71
2022/04/25 11:01:59;;;;;;;16.92;7.43;;;18.40;52.10;;;;;;5134265;27;20256;-70
2022/04/25 11:04:25;;;;;;;15.00;7.10;;;18.40;52.00;;;;;;5134285;27;20319;-71
2022/04/25 11:07:18;;;;;;;9.98;6.57;;;18.50;52.10;;;;;;5133318;27;20683;-70
2022/04/25 11:09:43;;;;;;;12.13;6.45;;;18.50;52.10;;;;;;5123240;27;20189;-69
2022/04/25 11:12:09;;;;;;;11.55;6.95;;;18.50;52.10;;;;;;5134248;27;20180;-70
2022/04/25 11:14:34;;;;;;;9.30;6.57;;;18.50;52.20;;;;;;5133199;27;20191;-68
2022/04/25 11:17:12;;;;;;;27.80;8.00;;;18.50;52.40;;;;;;5132809;27;20264;-70
2022/04/25 11:19:56;;;;;;;15.57;7.15;;;18.40;52.50;;;;;;5133922;27;20469;-69
2022/04/25 11:22:47;;;;;;;12.65;7.00;;;18.40;52.40;;;;;;5133084;27;20654;-70
2022/04/25 11:25:27;;;;;;;11.23;6.78;;;18.40;52.50;;;;;;5133858;27;20284;-69
2022/04/25 11:28:01;;;;;;;9.10;6.65;;;18.30;52.40;;;;;;5132921;27;20241;-69
2022/04/25 11:30:27;;;;;;;7.88;6.43;;;18.40;52.40;;;;;;5133951;27;20168;-69
2022/04/25 11:32:52;;;;;;;15.30;6.93;;;18.40;52.30;;;;;;5133370;27;20172;-69
2022/04/25 11:35:22;;;;;;;9.27;6.20;;;18.40;52.40;;;;;;5132963;27;20506;-69
2022/04/25 11:37:48;;;;;;;8.32;6.32;;;18.40;52.40;;;;;;5115331;27;20177;-70
2022/04/25 11:40:14;;;;;;;10.13;6.75;;;18.30;52.30;;;;;;5133903;27;20576;-69
2022/04/25 11:42:40;;;;;;;8.30;6.10;;;18.30;52.30;;;;;;5114286;27;20207;-71
2022/04/25 11:45:06;;;;;;;7.97;6.28;;;18.40;52.40;;;;;;5133806;27;20168;-72
2022/04/25 11:47:32;;;;;;;13.63;6.38;;;18.40;52.30;;;;;;5133699;27;20663;-67
2022/04/25 11:50:02;;;;;;;8.45;6.72;;;18.40;52.50;;;;;;5132888;27;20260;-67
2022/04/25 11:52:28;;;;;;;11.30;6.63;;;18.30;52.40;;;;;;5133692;27;20180;-67
2022/04/25 11:54:54;;;;;;;7.78;5.97;;;18.30;52.40;;;;;;5133602;27;20244;-67
2022/04/25 11:57:20;;;;;;;11.30;6.75;;;18.30;52.40;;;;;;5132889;27;20268;-68
2022/04/25 11:59:45;;;;;;;9.80;6.97;;;18.30;52.30;;;;;;5133335;27;20682;-67
2022/04/25 12:02:11;;;;;;;9.10;5.88;;;18.30;52.30;;;;;;5133294;27;20538;-67
2022/04/25 12:04:37;;;;;;;10.95;6.30;;;18.40;52.30;;;;;;5113758;27;20255;-67
2022/04/25 12:07:07;;;;;;;7.47;6.60;;;18.40;52.30;;;;;;5133240;27;20199;-66
2022/04/25 12:18:27;;;;;;;8.32;6.43;;;18.40;52.20;;;;;;5117065;27;20184;-68
2022/04/25 12:21:08;;;;;;;8.55;5.65;;;18.50;52.20;;;;;;5132933;27;20290;-67
2022/04/25 12:23:45;;;;;;;5.88;5.07;;;18.50;52.10;;;;;;5132076;27;20216;-68
2022/04/25 12:26:17;;;;;;;7.57;6.00;;;18.50;52.20;;;;;;5133153;27;20184;-67
2022/04/25 12:28:49;;;;;;;7.57;5.63;;;18.50;52.10;;;;;;5132080;27;20650;-67
2022/04/25 12:31:16;;;;;;;6.18;5.63;;;18.50;52.20;;;;;;5132498;27;20248;-67
2022/04/25 12:33:43;;;;;;;6.47;5.80;;;18.40;52.80;;;;;;5132720;27;20172;-67
2022/04/25 12:36:19;;;;;;;7.43;5.57;;;18.40;52.20;;;;;;5132766;27;20176;-66
2022/04/25 12:39:01;;;;;;;6.25;5.65;;;18.40;52.20;;;;;;5131535;27;20629;-67
2022/04/25 12:41:29;;;;;;;6.25;5.28;;;18.40;52.30;;;;;;5132742;27;20179;-68
2022/04/25 12:43:56;;;;;;;6.13;5.07;;;18.40;52.30;;;;;;5132163;27;20618;-67
2022/04/25 12:46:50;;;;;;;6.38;5.78;;;18.40;52.30;;;;;;5151827;27;20172;-67
2022/04/25 12:49:25;;;;;;;6.40;5.20;;;18.40;52.20;;;;;;5153448;27;20176;-67
2022/04/25 12:51:51;;;;;;;6.20;5.30;;;18.40;52.20;;;;;;5152301;27;20857;-66
2022/04/25 12:54:30;;;;;;;6.10;4.80;;;18.40;52.20;;;;;;5153294;27;20197;-67
2022/04/25 12:57:16;;;;;;;5.90;5.30;;;18.50;52.30;;;;;;5152940;27;20171;-67
2022/04/25 12:59:43;;;;;;;7.38;5.20;;;18.40;52.20;;;;;;5152384;27;20278;-68
2022/04/25 13:02:11;;;;;;;6.05;5.38;;;18.40;52.20;;;;;;5152139;27;20559;-70
2022/04/25 13:04:48;;;;;;;6.70;5.43;;;18.50;52.30;;;;;;5152670;27;20273;-67
2022/04/25 13:07:14;;;;;;;5.78;5.15;;;18.50;52.30;;;;;;5152345;27;20508;-68
2022/04/25 13:09:43;;;;;;;5.43;4.93;;;18.40;52.20;;;;;;5152531;27;20549;-68
2022/04/25 13:12:15;;;;;;;6.10;5.30;;;18.40;52.20;;;;;;5153246;27;20167;-67
2022/04/25 13:14:40;;;;;;;6.63;5.55;;;18.40;52.30;;;;;;5151998;27;20517;-67
2022/04/25 13:17:06;;;;;;;5.95;5.35;;;18.40;52.30;;;;;;5153060;27;20618;-68
2022/04/25 13:19:32;;;;;;;5.45;4.93;;;18.40;52.30;;;;;;5152859;27;20499;-67
2022/04/25 13:21:57;;;;;;;5.72;4.97;;;18.40;52.40;;;;;;5151710;27;20172;-67
2022/04/25 13:24:23;;;;;;;6.88;5.43;;;18.40;52.40;;;;;;5152795;27;20212;-67
2022/04/25 13:26:48;;;;;;;5.75;4.60;;;18.30;52.40;;;;;;5151971;27;20176;-67